createdAt,value
2017-09-07T00:00:11.691Z,0
2017-09-07T00:00:52.285Z,0
2017-09-07T00:01:32.888Z,0
2017-09-07T00:02:13.481Z,0
2017-09-07T00:02:54.068Z,0
2017-09-07T00:03:34.651Z,0
2017-09-07T00:04:15.260Z,0
2017-09-07T00:04:55.852Z,0
2017-09-07T00:05:36.450Z,0
2017-09-07T00:06:17.038Z,0
2017-09-07T00:06:57.679Z,0
2017-09-07T00:07:38.235Z,0
2017-09-07T00:08:18.811Z,0
2017-09-07T00:08:59.409Z,0
2017-09-07T00:09:40.031Z,0
2017-09-07T00:10:20.626Z,0
2017-09-07T00:11:01.232Z,0
2017-09-07T00:11:41.827Z,0
2017-09-07T00:12:22.413Z,0
2017-09-07T00:13:03.038Z,0
2017-09-07T00:13:43.620Z,0
2017-09-07T00:14:24.239Z,0
2017-09-07T00:15:04.843Z,0
2017-09-07T00:15:45.431Z,0
2017-09-07T00:16:26.040Z,0
2017-09-07T00:17:06.645Z,0
2017-09-07T00:17:47.218Z,0
2017-09-07T00:18:27.794Z,0
2017-09-07T00:19:08.367Z,0
2017-09-07T00:19:48.959Z,0
2017-09-07T00:20:29.539Z,0
2017-09-07T00:21:10.149Z,0
2017-09-07T00:21:50.738Z,0
2017-09-07T00:22:31.346Z,0
2017-09-07T00:23:11.903Z,0
2017-09-07T00:23:52.495Z,0
2017-09-07T00:24:33.080Z,0
2017-09-07T00:25:13.654Z,0
2017-09-07T00:25:54.237Z,0
2017-09-07T00:26:34.822Z,0
2017-09-07T00:27:15.410Z,0
2017-09-07T00:27:55.990Z,0
2017-09-07T00:28:36.605Z,0
2017-09-07T00:29:17.206Z,0
2017-09-07T00:29:57.774Z,0
2017-09-07T00:30:38.339Z,0
2017-09-07T00:31:18.898Z,0
2017-09-07T00:31:59.507Z,0
2017-09-07T00:32:40.110Z,0
2017-09-07T00:33:20.697Z,0
2017-09-07T00:34:01.305Z,0
2017-09-07T00:34:41.877Z,0
2017-09-07T00:35:22.463Z,0
2017-09-07T00:36:03.078Z,0
2017-09-07T00:36:43.649Z,0
2017-09-07T00:37:24.262Z,0
2017-09-07T00:38:04.823Z,0
2017-09-07T00:38:45.404Z,0
2017-09-07T00:39:25.964Z,0
2017-09-07T00:40:06.535Z,0
2017-09-07T00:40:47.178Z,0
2017-09-07T00:41:27.778Z,0
2017-09-07T00:42:08.359Z,0
2017-09-07T00:42:48.925Z,0
2017-09-07T00:43:29.537Z,0
2017-09-07T00:44:10.110Z,0
2017-09-07T00:44:50.688Z,0
2017-09-07T00:45:31.296Z,0
2017-09-07T00:46:11.906Z,0
2017-09-07T00:46:52.497Z,0
2017-09-07T00:47:33.070Z,0
2017-09-07T00:48:13.677Z,0
2017-09-07T00:48:54.260Z,0
2017-09-07T00:49:34.841Z,0
2017-09-07T00:50:15.447Z,0
2017-09-07T00:50:56.043Z,0
2017-09-07T00:51:36.615Z,0
2017-09-07T00:52:17.194Z,0
2017-09-07T00:52:57.758Z,0
2017-09-07T00:53:38.350Z,0
2017-09-07T00:54:18.940Z,0
2017-09-07T00:54:59.553Z,0
2017-09-07T00:55:40.125Z,0
2017-09-07T00:56:20.717Z,0
2017-09-07T00:57:01.305Z,0
2017-09-07T00:57:41.905Z,0
2017-09-07T00:58:22.506Z,0
2017-09-07T00:59:03.085Z,0
2017-09-07T00:59:43.670Z,0
2017-09-07T01:00:24.269Z,0
2017-09-07T01:01:04.852Z,0
2017-09-07T01:01:45.460Z,0
2017-09-07T01:02:26.096Z,0
2017-09-07T01:03:06.687Z,0
2017-09-07T01:03:47.280Z,0
2017-09-07T01:04:27.876Z,0
2017-09-07T01:05:08.465Z,0
2017-09-07T01:05:49.079Z,0
2017-09-07T01:06:29.669Z,0
2017-09-07T01:07:10.239Z,0
2017-09-07T01:07:50.828Z,0
2017-09-07T01:08:31.413Z,0
2017-09-07T01:09:11.994Z,0
2017-09-07T01:09:52.580Z,0
2017-09-07T01:10:33.199Z,0
2017-09-07T01:11:13.793Z,0
2017-09-07T01:11:54.369Z,0
2017-09-07T01:12:34.931Z,0
2017-09-07T01:13:15.489Z,0
2017-09-07T01:13:56.049Z,0
2017-09-07T01:14:36.640Z,0
2017-09-07T01:15:17.244Z,0
2017-09-07T01:15:57.838Z,0
2017-09-07T01:16:38.411Z,0
2017-09-07T01:17:19.002Z,0
2017-09-07T01:17:59.640Z,0
2017-09-07T01:18:40.186Z,0
2017-09-07T01:19:20.809Z,0
2017-09-07T01:20:01.393Z,0
2017-09-07T01:20:41.986Z,0
2017-09-07T01:21:22.573Z,0
2017-09-07T01:22:03.149Z,0
2017-09-07T01:22:43.736Z,0
2017-09-07T01:23:24.290Z,0
2017-09-07T01:24:04.854Z,0
2017-09-07T01:24:45.421Z,0
2017-09-07T01:25:26.023Z,0
2017-09-07T01:26:06.587Z,0
2017-09-07T01:26:47.157Z,0
2017-09-07T01:27:27.727Z,0
2017-09-07T01:28:08.296Z,0
2017-09-07T01:28:48.891Z,0
2017-09-07T01:29:29.487Z,0
2017-09-07T01:30:10.031Z,0
2017-09-07T01:30:50.604Z,0
2017-09-07T01:31:31.192Z,0
2017-09-07T01:32:11.774Z,0
2017-09-07T01:32:52.329Z,0
2017-09-07T01:33:32.929Z,0
2017-09-07T01:34:13.499Z,0
2017-09-07T01:34:54.069Z,0
2017-09-07T01:35:34.681Z,0
2017-09-07T01:36:15.290Z,0
2017-09-07T01:36:55.894Z,0
2017-09-07T01:37:36.455Z,0
2017-09-07T01:38:17.031Z,0
2017-09-07T01:38:57.598Z,0
2017-09-07T01:39:38.204Z,0
2017-09-07T01:40:18.783Z,0
2017-09-07T01:40:59.343Z,0
2017-09-07T01:41:39.910Z,0
2017-09-07T01:42:20.505Z,0
2017-09-07T01:43:01.097Z,0
2017-09-07T01:43:41.666Z,0
2017-09-07T01:44:22.268Z,0
2017-09-07T01:45:02.861Z,0
2017-09-07T01:45:43.449Z,0
2017-09-07T01:46:24.053Z,0
2017-09-07T01:47:04.614Z,0
2017-09-07T01:47:45.188Z,0
2017-09-07T01:48:25.768Z,0
2017-09-07T01:49:06.339Z,0
2017-09-07T01:49:46.911Z,0
2017-09-07T01:50:27.524Z,0
2017-09-07T01:51:08.076Z,0
2017-09-07T01:51:48.658Z,0
2017-09-07T01:52:29.224Z,0
2017-09-07T01:53:09.786Z,0
2017-09-07T01:53:50.346Z,0
2017-09-07T01:54:30.908Z,0
2017-09-07T01:55:11.518Z,0
2017-09-07T01:55:52.076Z,0
2017-09-07T01:56:32.662Z,0
2017-09-07T01:57:13.227Z,0
2017-09-07T01:57:53.790Z,0
2017-09-07T01:58:34.357Z,0
2017-09-07T01:59:14.951Z,0
2017-09-07T01:59:55.535Z,0
2017-09-07T02:00:36.099Z,0
2017-09-07T02:01:16.657Z,0
2017-09-07T02:01:57.216Z,0
2017-09-07T02:02:37.816Z,0
2017-09-07T02:03:18.412Z,0
2017-09-07T02:03:58.977Z,0
2017-09-07T02:04:39.548Z,0
2017-09-07T02:05:20.118Z,0
2017-09-07T02:06:00.687Z,0
2017-09-07T02:06:41.297Z,0
2017-09-07T02:07:21.883Z,0
2017-09-07T02:08:02.446Z,0
2017-09-07T02:08:43.041Z,0
2017-09-07T02:09:23.620Z,0
2017-09-07T02:10:04.181Z,0
2017-09-07T02:10:44.744Z,0
2017-09-07T02:11:25.345Z,0
2017-09-07T02:12:05.896Z,0
2017-09-07T02:12:46.497Z,0
2017-09-07T02:13:27.153Z,0
2017-09-07T02:14:07.742Z,0
2017-09-07T02:14:48.317Z,0
2017-09-07T02:15:28.918Z,0
2017-09-07T02:16:09.489Z,0
2017-09-07T02:16:50.054Z,0
2017-09-07T02:17:30.614Z,0
2017-09-07T02:18:11.191Z,0
2017-09-07T02:18:51.762Z,0
2017-09-07T02:19:32.356Z,0
2017-09-07T02:20:12.943Z,0
2017-09-07T02:20:53.504Z,0
2017-09-07T02:21:34.072Z,0
2017-09-07T02:22:14.659Z,0
2017-09-07T02:22:55.271Z,0
2017-09-07T02:23:36.945Z,0
2017-09-07T02:24:17.534Z,0
2017-09-07T02:24:58.107Z,0
2017-09-07T02:25:38.702Z,0
2017-09-07T02:26:19.291Z,0
2017-09-07T02:26:59.855Z,0
2017-09-07T02:27:40.444Z,0
2017-09-07T02:28:21.013Z,0
2017-09-07T02:29:01.587Z,0
2017-09-07T02:29:42.150Z,0
2017-09-07T02:30:22.760Z,0
2017-09-07T02:31:03.366Z,0
2017-09-07T02:31:43.916Z,0
2017-09-07T02:32:24.493Z,0
2017-09-07T02:33:05.081Z,0
2017-09-07T02:33:45.633Z,0
2017-09-07T02:34:26.232Z,0
2017-09-07T02:35:06.803Z,0
2017-09-07T02:35:47.386Z,0
2017-09-07T02:36:27.961Z,0
2017-09-07T02:37:08.530Z,0
2017-09-07T02:37:49.101Z,0
2017-09-07T02:38:29.678Z,0
2017-09-07T02:39:10.250Z,0
2017-09-07T02:39:50.829Z,0
2017-09-07T02:40:31.378Z,0
2017-09-07T02:41:11.962Z,0
2017-09-07T02:41:52.532Z,0
2017-09-07T02:42:33.121Z,0
2017-09-07T02:43:13.677Z,0
2017-09-07T02:43:54.240Z,0
2017-09-07T02:44:34.805Z,0
2017-09-07T02:45:15.375Z,0
2017-09-07T02:45:55.983Z,0
2017-09-07T02:46:36.570Z,0
2017-09-07T02:47:17.207Z,0
2017-09-07T02:47:57.813Z,0
2017-09-07T02:48:38.367Z,0
2017-09-07T02:49:18.926Z,0
2017-09-07T02:49:59.517Z,0
2017-09-07T02:50:40.086Z,0
2017-09-07T02:51:20.667Z,0
2017-09-07T02:52:01.241Z,0
2017-09-07T02:52:41.816Z,0
2017-09-07T02:53:22.391Z,0
2017-09-07T02:54:03.010Z,0
2017-09-07T02:54:43.616Z,0
2017-09-07T02:55:24.212Z,0
2017-09-07T02:56:04.774Z,0
2017-09-07T02:56:45.368Z,0
2017-09-07T02:57:25.913Z,0
2017-09-07T02:58:06.481Z,0
2017-09-07T02:58:47.051Z,0
2017-09-07T02:59:27.622Z,0
2017-09-07T03:00:08.209Z,0
2017-09-07T03:00:48.783Z,0
2017-09-07T03:01:29.361Z,0
2017-09-07T03:02:09.933Z,0
2017-09-07T03:02:50.491Z,0
2017-09-07T03:03:31.067Z,0
2017-09-07T03:04:11.632Z,0
2017-09-07T03:04:52.211Z,0
2017-09-07T03:05:32.783Z,0
2017-09-07T03:06:13.337Z,0
2017-09-07T03:06:53.902Z,0
2017-09-07T03:07:34.473Z,0
2017-09-07T03:08:15.063Z,0
2017-09-07T03:08:55.633Z,0
2017-09-07T03:09:36.197Z,0
2017-09-07T03:10:16.776Z,0
2017-09-07T03:10:57.348Z,0
2017-09-07T03:11:37.915Z,0
2017-09-07T03:12:18.486Z,0
2017-09-07T03:12:59.059Z,0
2017-09-07T03:13:39.629Z,0
2017-09-07T03:14:20.211Z,0
2017-09-07T03:15:00.793Z,0
2017-09-07T03:15:41.372Z,0
2017-09-07T03:16:21.934Z,0
2017-09-07T03:17:02.493Z,0
2017-09-07T03:17:43.062Z,0
2017-09-07T03:18:23.640Z,0
2017-09-07T03:19:04.219Z,0
2017-09-07T03:19:44.786Z,0
2017-09-07T03:20:25.360Z,0
2017-09-07T03:21:05.938Z,0
2017-09-07T03:21:46.494Z,0
2017-09-07T03:22:27.113Z,0
2017-09-07T03:23:07.668Z,0
2017-09-07T03:23:48.255Z,0
2017-09-07T03:24:28.890Z,0
2017-09-07T03:25:09.503Z,0
2017-09-07T03:25:50.086Z,0
2017-09-07T03:26:30.688Z,0
2017-09-07T03:27:11.258Z,0
2017-09-07T03:27:51.854Z,0
2017-09-07T03:28:32.419Z,0
2017-09-07T03:29:12.991Z,0
2017-09-07T03:29:53.577Z,0
2017-09-07T03:30:34.132Z,0
2017-09-07T03:31:14.703Z,0
2017-09-07T03:31:55.271Z,0
2017-09-07T03:32:35.849Z,0
2017-09-07T03:33:16.426Z,0
2017-09-07T03:33:56.994Z,0
2017-09-07T03:34:37.544Z,0
2017-09-07T03:35:18.110Z,0
2017-09-07T03:35:58.705Z,0
2017-09-07T03:36:39.278Z,0
2017-09-07T03:37:19.840Z,0
2017-09-07T03:38:00.410Z,0
2017-09-07T03:38:40.976Z,0
2017-09-07T03:39:21.558Z,0
2017-09-07T03:40:02.150Z,0
2017-09-07T03:40:42.722Z,0
2017-09-07T03:41:23.299Z,0
2017-09-07T03:42:03.865Z,0
2017-09-07T03:42:44.445Z,0
2017-09-07T03:43:25.004Z,0
2017-09-07T03:44:05.601Z,0
2017-09-07T03:44:46.182Z,0
2017-09-07T03:45:26.815Z,0
2017-09-07T03:46:07.442Z,0
2017-09-07T03:46:48.037Z,0
2017-09-07T03:47:28.618Z,0
2017-09-07T03:48:09.203Z,0
2017-09-07T03:48:49.773Z,0
2017-09-07T03:49:30.333Z,0
2017-09-07T03:50:10.942Z,0
2017-09-07T03:50:51.507Z,0
2017-09-07T03:51:32.086Z,0
2017-09-07T03:52:12.670Z,0
2017-09-07T03:52:53.235Z,0
2017-09-07T03:53:33.812Z,0
2017-09-07T03:54:14.391Z,0
2017-09-07T03:54:54.969Z,0
2017-09-07T03:55:35.546Z,0
2017-09-07T03:56:16.110Z,0
2017-09-07T03:56:56.731Z,0
2017-09-07T03:57:37.270Z,0
2017-09-07T03:58:17.837Z,0
2017-09-07T03:58:58.394Z,0
2017-09-07T03:59:38.960Z,0
2017-09-07T04:00:19.549Z,0
2017-09-07T04:01:00.118Z,4
2017-09-07T04:01:40.681Z,4
2017-09-07T04:02:21.240Z,4
2017-09-07T04:03:01.798Z,4
2017-09-07T04:03:42.384Z,4
2017-09-07T04:04:22.970Z,4
2017-09-07T04:05:03.547Z,4
2017-09-07T04:05:44.120Z,4
2017-09-07T04:06:24.673Z,4
2017-09-07T04:07:05.234Z,8
2017-09-07T04:07:45.820Z,8
2017-09-07T04:08:26.391Z,4
2017-09-07T04:09:06.965Z,8
2017-09-07T04:09:47.514Z,12
2017-09-07T04:10:28.086Z,12
2017-09-07T04:11:08.676Z,12
2017-09-07T04:11:49.253Z,16
2017-09-07T04:12:29.841Z,16
2017-09-07T04:13:10.397Z,16
2017-09-07T04:13:51.001Z,20
2017-09-07T04:14:31.557Z,24
2017-09-07T04:15:12.153Z,24
2017-09-07T04:15:52.720Z,28
2017-09-07T04:16:33.286Z,28
2017-09-07T04:17:13.861Z,36
2017-09-07T04:17:54.429Z,40
2017-09-07T04:18:35.039Z,40
2017-09-07T04:19:15.611Z,44
2017-09-07T04:19:56.194Z,48
2017-09-07T04:20:36.761Z,52
2017-09-07T04:21:17.334Z,60
2017-09-07T04:21:57.899Z,60
2017-09-07T04:22:38.473Z,68
2017-09-07T04:23:19.050Z,72
2017-09-07T04:23:59.629Z,80
2017-09-07T04:24:40.182Z,80
2017-09-07T04:25:20.756Z,92
2017-09-07T04:26:01.327Z,96
2017-09-07T04:26:41.879Z,104
2017-09-07T04:27:22.467Z,104
2017-09-07T04:28:03.026Z,116
2017-09-07T04:28:43.646Z,128
2017-09-07T04:29:24.242Z,136
2017-09-07T04:30:04.810Z,144
2017-09-07T04:30:45.372Z,148
2017-09-07T04:31:25.953Z,164
2017-09-07T04:32:06.519Z,176
2017-09-07T04:32:47.086Z,164
2017-09-07T04:33:27.775Z,160
2017-09-07T04:34:08.374Z,160
2017-09-07T04:34:48.943Z,188
2017-09-07T04:35:29.506Z,216
2017-09-07T04:36:10.058Z,248
2017-09-07T04:36:50.642Z,256
2017-09-07T04:37:31.246Z,284
2017-09-07T04:38:11.804Z,296
2017-09-07T04:38:52.410Z,312
2017-09-07T04:39:33.020Z,312
2017-09-07T04:40:13.604Z,328
2017-09-07T04:40:54.184Z,360
2017-09-07T04:41:35.486Z,372
2017-09-07T04:42:16.053Z,392
2017-09-07T04:42:56.617Z,392
2017-09-07T04:43:37.171Z,392
2017-09-07T04:44:17.728Z,436
2017-09-07T04:44:58.286Z,428
2017-09-07T04:45:38.853Z,496
2017-09-07T04:46:19.419Z,484
2017-09-07T04:46:59.986Z,488
2017-09-07T04:47:40.561Z,592
2017-09-07T04:48:21.136Z,612
2017-09-07T04:49:01.710Z,628
2017-09-07T04:49:42.267Z,692
2017-09-07T04:50:22.838Z,620
2017-09-07T04:51:03.400Z,696
2017-09-07T04:51:43.962Z,712
2017-09-07T04:52:24.541Z,772
2017-09-07T04:53:05.128Z,820
2017-09-07T04:53:45.702Z,828
2017-09-07T04:54:26.273Z,948
2017-09-07T04:55:06.828Z,804
2017-09-07T04:55:47.415Z,796
2017-09-07T04:56:28.006Z,812
2017-09-07T04:57:08.552Z,608
2017-09-07T04:57:49.116Z,552
2017-09-07T04:58:29.705Z,624
2017-09-07T04:59:10.268Z,612
2017-09-07T04:59:50.840Z,588
2017-09-07T05:00:31.405Z,452
2017-09-07T05:01:12.019Z,456
2017-09-07T05:01:52.574Z,480
2017-09-07T05:02:33.166Z,404
2017-09-07T05:03:13.786Z,480
2017-09-07T05:03:54.345Z,488
2017-09-07T05:04:34.942Z,520
2017-09-07T05:05:15.528Z,472
2017-09-07T05:05:56.098Z,412
2017-09-07T05:06:36.691Z,420
2017-09-07T05:07:17.308Z,500
2017-09-07T05:07:57.872Z,568
2017-09-07T05:08:38.439Z,708
2017-09-07T05:09:19.012Z,928
2017-09-07T05:09:59.584Z,988
2017-09-07T05:10:40.158Z,932
2017-09-07T05:11:20.735Z,972
2017-09-07T05:12:01.331Z,1244
2017-09-07T05:12:41.937Z,1356
2017-09-07T05:13:22.478Z,1040
2017-09-07T05:14:03.071Z,1160
2017-09-07T05:14:43.659Z,904
2017-09-07T05:15:24.239Z,1288
2017-09-07T05:16:04.843Z,1632
2017-09-07T05:16:45.403Z,1392
2017-09-07T05:17:25.992Z,1500
2017-09-07T05:18:06.562Z,1264
2017-09-07T05:18:47.145Z,1424
2017-09-07T05:19:27.722Z,1672
2017-09-07T05:20:08.290Z,1504
2017-09-07T05:20:48.851Z,1744
2017-09-07T05:21:29.416Z,1880
2017-09-07T05:22:09.987Z,1776
2017-09-07T05:22:50.563Z,1532
2017-09-07T05:23:31.117Z,1220
2017-09-07T05:24:11.699Z,1056
2017-09-07T05:24:52.270Z,996
2017-09-07T05:25:32.835Z,1384
2017-09-07T05:26:13.417Z,2084
2017-09-07T05:26:54.010Z,2536
2017-09-07T05:27:34.571Z,2264
2017-09-07T05:28:15.136Z,2692
2017-09-07T05:28:56.579Z,2688
2017-09-07T05:29:37.145Z,1912
2017-09-07T05:30:17.726Z,1096
2017-09-07T05:30:58.299Z,1072
2017-09-07T05:31:39.453Z,1144
2017-09-07T05:32:20.035Z,1200
2017-09-07T05:33:00.614Z,1156
2017-09-07T05:33:41.174Z,1416
2017-09-07T05:34:21.744Z,1952
2017-09-07T05:35:02.344Z,1892
2017-09-07T05:35:42.921Z,1924
2017-09-07T05:36:23.513Z,2436
2017-09-07T05:37:04.356Z,3168
2017-09-07T05:37:44.941Z,3540
2017-09-07T05:38:25.606Z,3092
2017-09-07T05:39:06.224Z,1808
2017-09-07T05:39:46.797Z,1032
2017-09-07T05:40:27.373Z,1012
2017-09-07T05:41:07.944Z,1496
2017-09-07T05:41:48.533Z,2568
2017-09-07T05:42:29.124Z,3744
2017-09-07T05:43:09.834Z,4512
2017-09-07T05:43:50.418Z,4672
2017-09-07T05:44:31.019Z,3460
2017-09-07T05:45:11.579Z,2596
2017-09-07T05:45:52.418Z,1772
2017-09-07T05:46:32.998Z,2196
2017-09-07T05:47:13.575Z,2684
2017-09-07T05:47:54.143Z,3112
2017-09-07T05:48:34.709Z,2456
2017-09-07T05:49:15.280Z,2316
2017-09-07T05:49:55.843Z,2264
2017-09-07T05:50:36.413Z,1660
2017-09-07T05:51:17.185Z,1460
2017-09-07T05:51:57.751Z,1800
2017-09-07T05:52:38.321Z,2060
2017-09-07T05:53:18.890Z,1816
2017-09-07T05:53:59.468Z,1468
2017-09-07T05:54:40.037Z,1380
2017-09-07T05:55:20.604Z,1200
2017-09-07T05:56:01.163Z,1036
2017-09-07T05:56:41.724Z,1124
2017-09-07T05:57:22.303Z,1128
2017-09-07T05:58:02.940Z,892
2017-09-07T05:58:44.140Z,864
2017-09-07T05:59:24.715Z,876
2017-09-07T06:00:05.399Z,832
2017-09-07T06:00:45.971Z,848
2017-09-07T06:01:26.531Z,780
2017-09-07T06:02:07.133Z,668
2017-09-07T06:02:47.730Z,628
2017-09-07T06:03:28.303Z,652
2017-09-07T06:04:08.885Z,592
2017-09-07T06:04:49.477Z,556
2017-09-07T06:05:30.122Z,480
2017-09-07T06:06:10.707Z,480
2017-09-07T06:06:51.305Z,476
2017-09-07T06:07:31.872Z,484
2017-09-07T06:08:12.448Z,552
2017-09-07T06:08:53.005Z,712
2017-09-07T06:09:33.572Z,964
2017-09-07T06:10:14.215Z,884
2017-09-07T06:10:54.829Z,832
2017-09-07T06:11:35.394Z,1164
2017-09-07T06:12:15.959Z,984
2017-09-07T06:12:56.528Z,664
2017-09-07T06:13:37.129Z,600
2017-09-07T06:14:17.704Z,628
2017-09-07T06:14:58.272Z,656
2017-09-07T06:15:38.837Z,656
2017-09-07T06:16:19.413Z,724
2017-09-07T06:16:59.983Z,764
2017-09-07T06:17:40.535Z,860
2017-09-07T06:18:21.134Z,924
2017-09-07T06:19:01.702Z,1032
2017-09-07T06:19:42.264Z,1640
2017-09-07T06:20:22.835Z,2776
2017-09-07T06:21:03.408Z,2988
2017-09-07T06:21:43.980Z,2920
2017-09-07T06:22:24.541Z,2244
2017-09-07T06:23:05.120Z,1956
2017-09-07T06:23:45.697Z,1788
2017-09-07T06:24:26.280Z,1664
2017-09-07T06:25:06.863Z,1336
2017-09-07T06:25:47.472Z,2128
2017-09-07T06:26:28.028Z,2492
2017-09-07T06:27:08.661Z,2944
2017-09-07T06:27:49.238Z,2900
2017-09-07T06:28:29.802Z,2204
2017-09-07T06:29:10.380Z,2020
2017-09-07T06:29:50.951Z,2916
2017-09-07T06:30:31.530Z,3340
2017-09-07T06:31:12.102Z,9976
2017-09-07T06:31:52.659Z,1120
2017-09-07T06:32:33.214Z,984
2017-09-07T06:33:14.262Z,2124
2017-09-07T06:33:54.884Z,3276
2017-09-07T06:34:35.467Z,3568
2017-09-07T06:35:16.066Z,4856
2017-09-07T06:35:56.642Z,4768
2017-09-07T06:36:37.207Z,8520
2017-09-07T06:37:17.781Z,1448
2017-09-07T06:37:58.369Z,1652
2017-09-07T06:38:38.947Z,1532
2017-09-07T06:39:19.525Z,1576
2017-09-07T06:40:00.109Z,1720
2017-09-07T06:40:40.683Z,1852
2017-09-07T06:41:21.243Z,1456
2017-09-07T06:42:01.815Z,1340
2017-09-07T06:42:42.372Z,1188
2017-09-07T06:43:22.947Z,1172
2017-09-07T06:44:03.539Z,1256
2017-09-07T06:44:44.100Z,1496
2017-09-07T06:45:24.674Z,1792
2017-09-07T06:46:05.290Z,1716
2017-09-07T06:46:45.858Z,1584
2017-09-07T06:47:26.435Z,1576
2017-09-07T06:48:07.018Z,1408
2017-09-07T06:48:47.600Z,1472
2017-09-07T06:49:28.166Z,1780
2017-09-07T06:50:08.730Z,1960
2017-09-07T06:50:49.303Z,2080
2017-09-07T06:51:29.886Z,1732
2017-09-07T06:52:11.035Z,1744
2017-09-07T06:52:51.616Z,2292
2017-09-07T06:53:32.176Z,2708
2017-09-07T06:54:12.738Z,4072
2017-09-07T06:54:53.329Z,4252
2017-09-07T06:55:33.877Z,3292
2017-09-07T06:56:14.463Z,3356
2017-09-07T06:56:55.032Z,5188
2017-09-07T06:57:35.592Z,13516
2017-09-07T06:58:16.202Z,49856
2017-09-07T06:58:56.764Z,3356
2017-09-07T06:59:37.347Z,3340
2017-09-07T07:00:17.917Z,2144
2017-09-07T07:00:58.488Z,1648
2017-09-07T07:01:39.056Z,1488
2017-09-07T07:02:19.621Z,1416
2017-09-07T07:03:00.307Z,1300
2017-09-07T07:03:40.889Z,1480
2017-09-07T07:04:21.450Z,1492
2017-09-07T07:05:02.009Z,1676
2017-09-07T07:05:42.601Z,1652
2017-09-07T07:06:23.165Z,1728
2017-09-07T07:07:03.727Z,1632
2017-09-07T07:07:44.302Z,1624
2017-09-07T07:08:24.968Z,1716
2017-09-07T07:09:05.549Z,2364
2017-09-07T07:09:46.132Z,2220
2017-09-07T07:10:26.760Z,2560
2017-09-07T07:11:07.362Z,2420
2017-09-07T07:11:48.005Z,2256
2017-09-07T07:12:28.566Z,5576
2017-09-07T07:13:09.174Z,4180
2017-09-07T07:13:49.788Z,3940
2017-09-07T07:14:30.353Z,3164
2017-09-07T07:15:10.938Z,4152
2017-09-07T07:15:51.503Z,4004
2017-09-07T07:16:32.069Z,3384
2017-09-07T07:17:12.681Z,6380
2017-09-07T07:17:53.244Z,10924
2017-09-07T07:18:33.866Z,9348
2017-09-07T07:19:14.460Z,9824
2017-09-07T07:19:55.044Z,13448
2017-09-07T07:20:35.881Z,52160
2017-09-07T07:21:16.590Z,90304
2017-09-07T07:21:57.176Z,80480
2017-09-07T07:22:37.761Z,25024
2017-09-07T07:23:18.336Z,14556
2017-09-07T07:23:58.920Z,8352
2017-09-07T07:24:39.592Z,28128
2017-09-07T07:25:20.265Z,24416
2017-09-07T07:26:00.906Z,12536
2017-09-07T07:26:41.472Z,37952
2017-09-07T07:27:22.044Z,18080
2017-09-07T07:28:02.608Z,15064
2017-09-07T07:28:43.187Z,10920
2017-09-07T07:29:23.761Z,13856
2017-09-07T07:30:04.344Z,8944
2017-09-07T07:30:44.912Z,7424
2017-09-07T07:31:25.489Z,6952
2017-09-07T07:32:06.058Z,7900
2017-09-07T07:32:46.644Z,6628
2017-09-07T07:33:27.209Z,5876
2017-09-07T07:34:07.806Z,15680
2017-09-07T07:34:48.606Z,15184
2017-09-07T07:35:29.175Z,87264
2017-09-07T07:36:09.859Z,20640
2017-09-07T07:36:50.553Z,31648
2017-09-07T07:37:31.116Z,20832
2017-09-07T07:38:11.712Z,78144
2017-09-07T07:38:52.271Z,17728
2017-09-07T07:39:32.878Z,88320
2017-09-07T07:40:13.451Z,72288
2017-09-07T07:40:54.055Z,66688
2017-09-07T07:41:34.647Z,91744
2017-09-07T07:42:15.221Z,88224
2017-09-07T07:42:55.881Z,76800
2017-09-07T07:43:36.457Z,49376
2017-09-07T07:44:17.043Z,20448
2017-09-07T07:44:57.618Z,39872
2017-09-07T07:45:38.226Z,19936
2017-09-07T07:46:18.808Z,17824
2017-09-07T07:46:59.377Z,92032
2017-09-07T07:47:39.967Z,90432
2017-09-07T07:48:20.549Z,10592
2017-09-07T07:49:01.141Z,17344
2017-09-07T07:49:41.732Z,15764
2017-09-07T07:50:22.291Z,10232
2017-09-07T07:51:02.878Z,12084
2017-09-07T07:51:43.609Z,11248
2017-09-07T07:52:24.184Z,16400
2017-09-07T07:53:04.774Z,10380
2017-09-07T07:53:45.369Z,10016
2017-09-07T07:54:25.937Z,12604
2017-09-07T07:55:06.496Z,15584
2017-09-07T07:55:47.084Z,19072
2017-09-07T07:56:27.772Z,21440
2017-09-07T07:57:08.338Z,40000
2017-09-07T07:57:48.951Z,71904
2017-09-07T07:58:29.545Z,72736
2017-09-07T07:59:10.158Z,59328
2017-09-07T07:59:50.831Z,34272
2017-09-07T08:00:31.407Z,16960
2017-09-07T08:01:12.095Z,10848
2017-09-07T08:01:53.980Z,11488
2017-09-07T08:02:34.317Z,11028
2017-09-07T08:03:14.875Z,10144
2017-09-07T08:03:55.467Z,10412
2017-09-07T08:04:36.033Z,10844
2017-09-07T08:05:16.605Z,16016
2017-09-07T08:05:57.214Z,11792
2017-09-07T08:06:37.752Z,19232
2017-09-07T08:07:18.368Z,14408
2017-09-07T08:07:58.953Z,11792
2017-09-07T08:08:39.536Z,10820
2017-09-07T08:09:20.114Z,6864
2017-09-07T08:10:00.753Z,5396
2017-09-07T08:10:41.323Z,6252
2017-09-07T08:11:21.874Z,15520
2017-09-07T08:12:02.447Z,8212
2017-09-07T08:12:43.014Z,6744
2017-09-07T08:13:23.576Z,7232
2017-09-07T08:14:04.149Z,8572
2017-09-07T08:14:44.721Z,12440
2017-09-07T08:15:25.298Z,13828
2017-09-07T08:16:05.870Z,11644
2017-09-07T08:16:46.437Z,10340
2017-09-07T08:17:27.031Z,9320
2017-09-07T08:18:07.594Z,6848
2017-09-07T08:18:48.162Z,7412
2017-09-07T08:19:28.746Z,7464
2017-09-07T08:20:09.317Z,8096
2017-09-07T08:20:49.883Z,10232
2017-09-07T08:21:30.478Z,9240
2017-09-07T08:22:11.045Z,9364
2017-09-07T08:22:51.627Z,7820
2017-09-07T08:23:32.204Z,8120
2017-09-07T08:24:12.794Z,8032
2017-09-07T08:24:53.373Z,7548
2017-09-07T08:25:33.929Z,8520
2017-09-07T08:26:14.504Z,10636
2017-09-07T08:26:55.081Z,11304
2017-09-07T08:27:35.659Z,10196
2017-09-07T08:28:16.228Z,13896
2017-09-07T08:28:56.820Z,14060
2017-09-07T08:29:37.395Z,19776
2017-09-07T08:30:17.980Z,13848
2017-09-07T08:30:58.551Z,16544
2017-09-07T08:31:39.109Z,13244
2017-09-07T08:32:19.709Z,10928
2017-09-07T08:33:00.282Z,16288
2017-09-07T08:33:40.845Z,12508
2017-09-07T08:34:21.415Z,15300
2017-09-07T08:35:01.995Z,8700
2017-09-07T08:35:42.560Z,8232
2017-09-07T08:36:23.154Z,13928
2017-09-07T08:37:03.726Z,13100
2017-09-07T08:37:44.310Z,12336
2017-09-07T08:38:24.885Z,8948
2017-09-07T08:39:05.453Z,7880
2017-09-07T08:39:46.019Z,7956
2017-09-07T08:40:26.588Z,8104
2017-09-07T08:41:07.161Z,7316
2017-09-07T08:41:47.722Z,6684
2017-09-07T08:42:28.309Z,8132
2017-09-07T08:43:08.883Z,7072
2017-09-07T08:43:49.464Z,6888
2017-09-07T08:44:30.078Z,7928
2017-09-07T08:45:10.672Z,6860
2017-09-07T08:45:51.265Z,6516
2017-09-07T08:46:31.837Z,3820
2017-09-07T08:47:12.417Z,5632
2017-09-07T08:47:52.983Z,5772
2017-09-07T08:48:33.557Z,7160
2017-09-07T08:49:14.129Z,7868
2017-09-07T08:49:54.692Z,7156
2017-09-07T08:50:35.270Z,6624
2017-09-07T08:51:15.868Z,6352
2017-09-07T08:51:56.436Z,7892
2017-09-07T08:52:37.002Z,9140
2017-09-07T08:53:17.619Z,7788
2017-09-07T08:53:58.180Z,7448
2017-09-07T08:54:38.751Z,7508
2017-09-07T08:55:19.321Z,5132
2017-09-07T08:55:59.883Z,5924
2017-09-07T08:56:40.475Z,7864
2017-09-07T08:57:21.028Z,6536
2017-09-07T08:58:01.598Z,5104
2017-09-07T08:58:42.165Z,5264
2017-09-07T08:59:22.730Z,6500
2017-09-07T09:00:03.296Z,5984
2017-09-07T09:00:43.863Z,5472
2017-09-07T09:01:24.472Z,3876
2017-09-07T09:02:05.070Z,3200
2017-09-07T09:02:45.651Z,3428
2017-09-07T09:03:26.242Z,3904
2017-09-07T09:04:06.816Z,3996
2017-09-07T09:04:47.404Z,3644
2017-09-07T09:05:27.978Z,4052
2017-09-07T09:06:08.551Z,3692
2017-09-07T09:06:49.115Z,3700
2017-09-07T09:07:29.712Z,4292
2017-09-07T09:08:10.325Z,5236
2017-09-07T09:08:50.916Z,6108
2017-09-07T09:09:31.509Z,7808
2017-09-07T09:10:12.077Z,9512
2017-09-07T09:10:52.655Z,9656
2017-09-07T09:11:33.220Z,8572
2017-09-07T09:12:13.786Z,7044
2017-09-07T09:12:54.364Z,6832
2017-09-07T09:13:34.931Z,7696
2017-09-07T09:14:15.524Z,6684
2017-09-07T09:14:56.084Z,6256
2017-09-07T09:15:36.671Z,5104
2017-09-07T09:16:17.285Z,4116
2017-09-07T09:16:57.875Z,3956
2017-09-07T09:17:38.444Z,4708
2017-09-07T09:18:19.019Z,5832
2017-09-07T09:18:59.592Z,7868
2017-09-07T09:19:40.167Z,8436
2017-09-07T09:20:20.732Z,6464
2017-09-07T09:21:01.297Z,6636
2017-09-07T09:21:41.913Z,6176
2017-09-07T09:22:22.456Z,7324
2017-09-07T09:23:03.039Z,9672
2017-09-07T09:23:43.636Z,8188
2017-09-07T09:24:24.220Z,6196
2017-09-07T09:25:04.793Z,4276
2017-09-07T09:25:45.380Z,3816
2017-09-07T09:26:25.934Z,3576